sensor_id;sensor_type;location;lat;lon;timestamp;P1;durP1;ratioP1;P2;durP2;ratioP2
76801;SDS011;66403;50.832;10.950;2023-04-24T00:04:48;0.80;;;0.60;;
76801;SDS011;66403;50.832;10.950;2023-04-24T00:09:48;0.90;;;0.70;;
76801;SDS011;66403;50.832;10.950;2023-04-24T00:14:49;0.65;;;0.47;;
76801;SDS011;66403;50.832;10.950;2023-04-24T00:19:49;1.55;;;0.77;;
76801;SDS011;66403;50.832;10.950;2023-04-24T00:24:51;0.63;;;0.52;;
76801;SDS011;66403;50.832;10.950;2023-04-24T00:29:51;1.85;;;0.85;;
76801;SDS011;66403;50.832;10.950;2023-04-24T00:34:52;0.90;;;0.88;;
76801;SDS011;66403;50.832;10.950;2023-04-24T00:39:52;1.38;;;0.80;;
76801;SDS011;66403;50.832;10.950;2023-04-24T00:44:52;1.33;;;0.70;;
76801;SDS011;66403;50.832;10.950;2023-04-24T00:49:54;1.08;;;0.70;;
76801;SDS011;66403;50.832;10.950;2023-04-24T00:54:55;1.08;;;0.70;;
76801;SDS011;66403;50.832;10.950;2023-04-24T00:59:55;1.10;;;0.55;;
76801;SDS011;66403;50.832;10.950;2023-04-24T01:04:55;0.85;;;0.65;;
76801;SDS011;66403;50.832;10.950;2023-04-24T01:09:56;1.10;;;0.70;;
76801;SDS011;66403;50.832;10.950;2023-04-24T01:14:58;0.88;;;0.60;;
76801;SDS011;66403;50.832;10.950;2023-04-24T01:19:59;0.70;;;0.70;;
76801;SDS011;66403;50.832;10.950;2023-04-24T01:25:01;1.95;;;1.00;;
76801;SDS011;66403;50.832;10.950;2023-04-24T01:30:04;3.85;;;1.08;;
76801;SDS011;66403;50.832;10.950;2023-04-24T01:35:06;0.98;;;0.70;;
76801;SDS011;66403;50.832;10.950;2023-04-24T01:40:07;0.95;;;0.70;;
76801;SDS011;66403;50.832;10.950;2023-04-24T01:45:09;1.88;;;0.90;;
76801;SDS011;66403;50.832;10.950;2023-04-24T01:50:10;13.63;;;5.60;;
76801;SDS011;66403;50.832;10.950;2023-04-24T01:55:12;1.00;;;0.80;;
76801;SDS011;66403;50.832;10.950;2023-04-24T02:00:13;1.60;;;0.80;;
76801;SDS011;66403;50.832;10.950;2023-04-24T02:05:14;1.27;;;1.08;;
76801;SDS011;66403;50.832;10.950;2023-04-24T02:10:15;2.13;;;1.38;;
76801;SDS011;66403;50.832;10.950;2023-04-24T02:15:16;1.52;;;1.10;;
76801;SDS011;66403;50.832;10.950;2023-04-24T02:20:17;2.15;;;1.40;;
76801;SDS011;66403;50.832;10.950;2023-04-24T02:25:18;1.23;;;1.10;;
76801;SDS011;66403;50.832;10.950;2023-04-24T02:30:18;2.80;;;1.33;;
76801;SDS011;66403;50.832;10.950;2023-04-24T02:35:19;0.85;;;0.85;;
76801;SDS011;66403;50.832;10.950;2023-04-24T02:40:20;2.22;;;1.25;;
76801;SDS011;66403;50.832;10.950;2023-04-24T02:45:21;1.55;;;1.45;;
76801;SDS011;66403;50.832;10.950;2023-04-24T02:50:21;1.92;;;1.05;;
76801;SDS011;66403;50.832;10.950;2023-04-24T02:55:22;1.50;;;1.05;;
76801;SDS011;66403;50.832;10.950;2023-04-24T03:00:22;2.20;;;1.45;;
76801;SDS011;66403;50.832;10.950;2023-04-24T03:05:23;2.17;;;1.40;;
76801;SDS011;66403;50.832;10.950;2023-04-24T03:10:23;3.85;;;1.00;;
76801;SDS011;66403;50.832;10.950;2023-04-24T03:15:24;1.55;;;1.20;;
76801;SDS011;66403;50.832;10.950;2023-04-24T03:20:24;1.70;;;1.23;;
76801;SDS011;66403;50.832;10.950;2023-04-24T03:25:26;1.60;;;1.30;;
76801;SDS011;66403;50.832;10.950;2023-04-24T03:30:27;1.73;;;1.33;;
76801;SDS011;66403;50.832;10.950;2023-04-24T03:45:40;1.67;;;1.50;;
76801;SDS011;66403;50.832;10.950;2023-04-24T03:50:41;1.63;;;1.30;;
76801;SDS011;66403;50.832;10.950;2023-04-24T03:55:44;1.48;;;1.02;;
76801;SDS011;66403;50.832;10.950;2023-04-24T04:00:45;1.38;;;1.15;;
76801;SDS011;66403;50.832;10.950;2023-04-24T04:06:15;1.23;;;0.93;;
76801;SDS011;66403;50.832;10.950;2023-04-24T04:11:16;2.47;;;1.48;;
76801;SDS011;66403;50.832;10.950;2023-04-24T04:16:18;1.70;;;1.40;;
76801;SDS011;66403;50.832;10.950;2023-04-24T04:21:20;4.25;;;1.90;;
76801;SDS011;66403;50.832;10.950;2023-04-24T04:26:23;1.70;;;1.30;;
76801;SDS011;66403;50.832;10.950;2023-04-24T04:31:40;2.92;;;1.35;;
76801;SDS011;66403;50.832;10.950;2023-04-24T04:36:45;1.58;;;0.80;;
76801;SDS011;66403;50.832;10.950;2023-04-24T04:41:58;1.50;;;0.95;;
76801;SDS011;66403;50.832;10.950;2023-04-24T04:47:05;1.80;;;1.17;;
76801;SDS011;66403;50.832;10.950;2023-04-24T04:52:09;1.92;;;1.73;;
76801;SDS011;66403;50.832;10.950;2023-04-24T04:57:10;3.78;;;0.95;;
76801;SDS011;66403;50.832;10.950;2023-04-24T05:02:11;1.25;;;0.95;;
76801;SDS011;66403;50.832;10.950;2023-04-24T05:07:11;3.45;;;1.33;;
76801;SDS011;66403;50.832;10.950;2023-04-24T05:12:15;1.05;;;0.80;;
76801;SDS011;66403;50.832;10.950;2023-04-24T05:17:23;3.17;;;0.70;;
76801;SDS011;66403;50.832;10.950;2023-04-24T05:22:27;0.95;;;0.47;;
76801;SDS011;66403;50.832;10.950;2023-04-24T05:27:27;0.60;;;0.40;;
76801;SDS011;66403;50.832;10.950;2023-04-24T05:32:28;3.47;;;0.50;;
76801;SDS011;66403;50.832;10.950;2023-04-24T05:37:29;1.23;;;0.75;;
76801;SDS011;66403;50.832;10.950;2023-04-24T05:42:30;1.00;;;0.73;;
76801;SDS011;66403;50.832;10.950;2023-04-24T05:47:31;2.28;;;0.73;;
76801;SDS011;66403;50.832;10.950;2023-04-24T05:52:32;0.77;;;0.60;;
76801;SDS011;66403;50.832;10.950;2023-04-24T05:57:35;1.70;;;0.50;;
76801;SDS011;66403;50.832;10.950;2023-04-24T06:02:38;0.77;;;0.60;;
76801;SDS011;66403;50.832;10.950;2023-04-24T06:07:39;0.43;;;0.40;;
76801;SDS011;66403;50.832;10.950;2023-04-24T06:12:41;0.57;;;0.57;;
76801;SDS011;66403;50.832;10.950;2023-04-24T06:17:48;1.35;;;0.40;;
76801;SDS011;66403;50.832;10.950;2023-04-24T06:22:50;1.67;;;0.50;;
76801;SDS011;66403;50.832;10.950;2023-04-24T06:27:51;0.88;;;0.47;;
76801;SDS011;66403;50.832;10.950;2023-04-24T06:32:52;1.13;;;0.50;;
76801;SDS011;66403;50.832;10.950;2023-04-24T06:37:52;0.82;;;0.45;;
76801;SDS011;66403;50.832;10.950;2023-04-24T06:42:53;1.73;;;0.60;;
76801;SDS011;66403;50.832;10.950;2023-04-24T06:47:53;1.05;;;0.43;;
76801;SDS011;66403;50.832;10.950;2023-04-24T06:52:53;0.68;;;0.65;;
76801;SDS011;66403;50.832;10.950;2023-04-24T06:57:54;0.80;;;0.60;;
76801;SDS011;66403;50.832;10.950;2023-04-24T07:02:54;0.63;;;0.60;;
76801;SDS011;66403;50.832;10.950;2023-04-24T07:07:55;1.05;;;0.70;;
76801;SDS011;66403;50.832;10.950;2023-04-24T07:12:55;0.75;;;0.55;;
76801;SDS011;66403;50.832;10.950;2023-04-24T07:17:56;3.50;;;1.92;;
76801;SDS011;66403;50.832;10.950;2023-04-24T07:22:56;1.63;;;0.63;;
76801;SDS011;66403;50.832;10.950;2023-04-24T07:27:57;1.00;;;0.60;;
76801;SDS011;66403;50.832;10.950;2023-04-24T07:32:58;1.15;;;0.68;;
76801;SDS011;66403;50.832;10.950;2023-04-24T07:37:58;2.40;;;0.70;;
76801;SDS011;66403;50.832;10.950;2023-04-24T07:42:59;0.50;;;0.50;;
76801;SDS011;66403;50.832;10.950;2023-04-24T07:47:59;2.05;;;1.35;;
76801;SDS011;66403;50.832;10.950;2023-04-24T07:53:00;1.38;;;0.60;;
76801;SDS011;66403;50.832;10.950;2023-04-24T07:58:00;6.23;;;0.73;;
76801;SDS011;66403;50.832;10.950;2023-04-24T08:03:01;1.90;;;0.53;;
76801;SDS011;66403;50.832;10.950;2023-04-24T08:08:01;0.68;;;0.63;;
76801;SDS011;66403;50.832;10.950;2023-04-24T08:13:02;1.15;;;0.40;;
76801;SDS011;66403;50.832;10.950;2023-04-24T08:18:02;0.50;;;0.40;;
76801;SDS011;66403;50.832;10.950;2023-04-24T08:23:03;0.95;;;0.60;;
76801;SDS011;66403;50.832;10.950;2023-04-24T08:28:05;5.90;;;3.35;;
76801;SDS011;66403;50.832;10.950;2023-04-24T08:33:05;0.82;;;0.80;;
76801;SDS011;66403;50.832;10.950;2023-04-24T08:38:07;0.90;;;0.70;;
76801;SDS011;66403;50.832;10.950;2023-04-24T08:43:07;0.97;;;0.70;;
76801;SDS011;66403;50.832;10.950;2023-04-24T08:48:08;0.63;;;0.55;;
76801;SDS011;66403;50.832;10.950;2023-04-24T08:53:10;0.60;;;0.52;;
76801;SDS011;66403;50.832;10.950;2023-04-24T08:58:11;0.55;;;0.50;;
76801;SDS011;66403;50.832;10.950;2023-04-24T09:03:12;1.65;;;0.82;;
76801;SDS011;66403;50.832;10.950;2023-04-24T09:08:14;0.50;;;0.50;;
76801;SDS011;66403;50.832;10.950;2023-04-24T09:13:14;0.60;;;0.60;;
76801;SDS011;66403;50.832;10.950;2023-04-24T09:18:15;0.70;;;0.60;;
76801;SDS011;66403;50.832;10.950;2023-04-24T09:23:17;2.92;;;0.93;;
76801;SDS011;66403;50.832;10.950;2023-04-24T09:28:17;1.42;;;0.70;;
76801;SDS011;66403;50.832;10.950;2023-04-24T09:33:18;1.57;;;0.73;;
76801;SDS011;66403;50.832;10.950;2023-04-24T09:38:19;0.50;;;0.45;;
76801;SDS011;66403;50.832;10.950;2023-04-24T09:43:20;0.50;;;0.50;;
76801;SDS011;66403;50.832;10.950;2023-04-24T09:48:29;0.80;;;0.60;;
76801;SDS011;66403;50.832;10.950;2023-04-24T09:53:30;0.55;;;0.45;;
76801;SDS011;66403;50.832;10.950;2023-04-24T09:58:31;8.30;;;2.85;;
76801;SDS011;66403;50.832;10.950;2023-04-24T10:03:32;1.52;;;0.80;;
76801;SDS011;66403;50.832;10.950;2023-04-24T10:08:34;0.77;;;0.60;;
76801;SDS011;66403;50.832;10.950;2023-04-24T10:13:35;0.80;;;0.70;;
76801;SDS011;66403;50.832;10.950;2023-04-24T10:18:35;1.63;;;1.00;;
76801;SDS011;66403;50.832;10.950;2023-04-24T10:23:36;1.50;;;0.80;;
76801;SDS011;66403;50.832;10.950;2023-04-24T10:28:37;1.20;;;0.90;;
76801;SDS011;66403;50.832;10.950;2023-04-24T10:33:38;1.77;;;1.15;;
76801;SDS011;66403;50.832;10.950;2023-04-24T10:38:42;0.63;;;0.60;;
76801;SDS011;66403;50.832;10.950;2023-04-24T10:43:43;1.02;;;0.80;;
76801;SDS011;66403;50.832;10.950;2023-04-24T10:48:44;0.82;;;0.60;;
76801;SDS011;66403;50.832;10.950;2023-04-24T10:53:52;2.92;;;0.70;;
76801;SDS011;66403;50.832;10.950;2023-04-24T10:58:53;1.57;;;1.00;;
76801;SDS011;66403;50.832;10.950;2023-04-24T11:03:54;1.23;;;1.10;;
76801;SDS011;66403;50.832;10.950;2023-04-24T11:08:59;1.48;;;0.90;;
76801;SDS011;66403;50.832;10.950;2023-04-24T11:14:04;0.98;;;0.80;;
76801;SDS011;66403;50.832;10.950;2023-04-24T11:34:48;4.30;;;0.90;;
76801;SDS011;66403;50.832;10.950;2023-04-24T11:39:50;1.30;;;0.60;;
76801;SDS011;66403;50.832;10.950;2023-04-24T11:44:52;1.88;;;0.80;;
76801;SDS011;66403;50.832;10.950;2023-04-24T11:49:54;0.85;;;0.80;;
76801;SDS011;66403;50.832;10.950;2023-04-24T11:54:54;1.33;;;0.95;;
76801;SDS011;66403;50.832;10.950;2023-04-24T11:59:55;0.70;;;0.70;;
76801;SDS011;66403;50.832;10.950;2023-04-24T12:04:55;0.80;;;0.70;;
76801;SDS011;66403;50.832;10.950;2023-04-24T12:09:57;1.20;;;0.80;;
76801;SDS011;66403;50.832;10.950;2023-04-24T12:14:59;1.75;;;0.93;;
76801;SDS011;66403;50.832;10.950;2023-04-24T12:20:00;1.23;;;0.70;;
76801;SDS011;66403;50.832;10.950;2023-04-24T12:25:03;0.88;;;0.77;;
76801;SDS011;66403;50.832;10.950;2023-04-24T12:30:05;1.45;;;0.70;;
76801;SDS011;66403;50.832;10.950;2023-04-24T12:35:06;1.02;;;0.93;;
76801;SDS011;66403;50.832;10.950;2023-04-24T12:40:07;1.52;;;0.80;;
76801;SDS011;66403;50.832;10.950;2023-04-24T12:45:09;0.82;;;0.68;;
76801;SDS011;66403;50.832;10.950;2023-04-24T12:50:12;0.65;;;0.65;;
76801;SDS011;66403;50.832;10.950;2023-04-24T12:55:14;0.88;;;0.80;;
76801;SDS011;66403;50.832;10.950;2023-04-24T13:00:15;1.33;;;1.10;;
76801;SDS011;66403;50.832;10.950;2023-04-24T13:05:15;2.33;;;1.30;;
76801;SDS011;66403;50.832;10.950;2023-04-24T13:10:16;0.82;;;0.82;;
76801;SDS011;66403;50.832;10.950;2023-04-24T13:15:16;0.60;;;0.60;;
76801;SDS011;66403;50.832;10.950;2023-04-24T13:20:19;1.10;;;0.60;;
76801;SDS011;66403;50.832;10.950;2023-04-24T13:25:26;0.32;;;0.30;;
76801;SDS011;66403;50.832;10.950;2023-04-24T13:30:26;0.20;;;0.20;;
76801;SDS011;66403;50.832;10.950;2023-04-24T13:35:27;0.50;;;0.40;;
76801;SDS011;66403;50.832;10.950;2023-04-24T13:40:27;0.67;;;0.40;;
76801;SDS011;66403;50.832;10.950;2023-04-24T13:45:28;0.67;;;0.57;;
76801;SDS011;66403;50.832;10.950;2023-04-24T13:50:28;0.50;;;0.50;;
76801;SDS011;66403;50.832;10.950;2023-04-24T13:55:29;0.47;;;0.30;;
76801;SDS011;66403;50.832;10.950;2023-04-24T14:00:29;0.35;;;0.30;;
76801;SDS011;66403;50.832;10.950;2023-04-24T14:05:31;0.40;;;0.30;;
76801;SDS011;66403;50.832;10.950;2023-04-24T14:10:31;1.55;;;1.25;;
76801;SDS011;66403;50.832;10.950;2023-04-24T14:15:31;0.50;;;0.37;;
76801;SDS011;66403;50.832;10.950;2023-04-24T14:20:32;0.60;;;0.60;;
76801;SDS011;66403;50.832;10.950;2023-04-24T14:25:32;0.43;;;0.30;;
76801;SDS011;66403;50.832;10.950;2023-04-24T14:30:33;0.40;;;0.20;;
76801;SDS011;66403;50.832;10.950;2023-04-24T14:35:33;0.67;;;0.50;;
76801;SDS011;66403;50.832;10.950;2023-04-24T14:40:35;0.22;;;0.22;;
76801;SDS011;66403;50.832;10.950;2023-04-24T14:45:36;1.17;;;0.30;;
76801;SDS011;66403;50.832;10.950;2023-04-24T14:50:37;0.30;;;0.28;;
76801;SDS011;66403;50.832;10.950;2023-04-24T14:55:38;0.43;;;0.40;;
76801;SDS011;66403;50.832;10.950;2023-04-24T15:00:38;0.40;;;0.40;;
76801;SDS011;66403;50.832;10.950;2023-04-24T15:05:39;0.37;;;0.30;;
76801;SDS011;66403;50.832;10.950;2023-04-24T15:10:39;0.30;;;0.30;;
76801;SDS011;66403;50.832;10.950;2023-04-24T15:15:40;3.53;;;1.23;;
76801;SDS011;66403;50.832;10.950;2023-04-24T15:20:40;0.40;;;0.40;;
76801;SDS011;66403;50.832;10.950;2023-04-24T15:25:41;0.70;;;0.38;;
76801;SDS011;66403;50.832;10.950;2023-04-24T15:30:41;0.30;;;0.30;;
76801;SDS011;66403;50.832;10.950;2023-04-24T15:35:42;0.40;;;0.40;;
76801;SDS011;66403;50.832;10.950;2023-04-24T15:40:42;0.40;;;0.40;;
76801;SDS011;66403;50.832;10.950;2023-04-24T15:45:44;0.50;;;0.50;;
76801;SDS011;66403;50.832;10.950;2023-04-24T15:50:45;0.88;;;0.60;;
76801;SDS011;66403;50.832;10.950;2023-04-24T15:55:45;1.63;;;0.70;;
76801;SDS011;66403;50.832;10.950;2023-04-24T16:00:46;1.02;;;0.80;;
76801;SDS011;66403;50.832;10.950;2023-04-24T16:05:46;1.05;;;0.88;;
76801;SDS011;66403;50.832;10.950;2023-04-24T16:10:47;1.63;;;1.08;;
76801;SDS011;66403;50.832;10.950;2023-04-24T16:15:47;1.13;;;0.98;;
76801;SDS011;66403;50.832;10.950;2023-04-24T16:20:48;2.97;;;1.08;;
76801;SDS011;66403;50.832;10.950;2023-04-24T16:25:48;2.47;;;1.00;;
76801;SDS011;66403;50.832;10.950;2023-04-24T16:30:49;2.78;;;1.20;;
76801;SDS011;66403;50.832;10.950;2023-04-24T16:35:49;1.00;;;0.80;;
76801;SDS011;66403;50.832;10.950;2023-04-24T16:40:50;1.75;;;1.00;;
76801;SDS011;66403;50.832;10.950;2023-04-24T16:45:50;1.90;;;1.25;;
76801;SDS011;66403;50.832;10.950;2023-04-24T16:50:51;3.22;;;1.27;;
76801;SDS011;66403;50.832;10.950;2023-04-24T16:55:51;2.45;;;1.13;;
76801;SDS011;66403;50.832;10.950;2023-04-24T17:00:52;2.10;;;1.10;;
76801;SDS011;66403;50.832;10.950;2023-04-24T17:05:52;1.98;;;1.70;;
76801;SDS011;66403;50.832;10.950;2023-04-24T17:10:53;1.38;;;1.15;;
76801;SDS011;66403;50.832;10.950;2023-04-24T17:15:53;2.60;;;1.40;;
76801;SDS011;66403;50.832;10.950;2023-04-24T17:20:54;2.08;;;1.30;;
76801;SDS011;66403;50.832;10.950;2023-04-24T17:25:54;2.40;;;1.40;;
76801;SDS011;66403;50.832;10.950;2023-04-24T17:30:55;1.52;;;1.27;;
76801;SDS011;66403;50.832;10.950;2023-04-24T17:35:57;2.40;;;1.80;;
76801;SDS011;66403;50.832;10.950;2023-04-24T17:40:59;3.60;;;1.52;;
76801;SDS011;66403;50.832;10.950;2023-04-24T17:46:00;3.92;;;2.13;;
76801;SDS011;66403;50.832;10.950;2023-04-24T17:51:01;3.83;;;1.67;;
76801;SDS011;66403;50.832;10.950;2023-04-24T17:56:01;2.63;;;2.00;;
76801;SDS011;66403;50.832;10.950;2023-04-24T18:01:03;3.13;;;1.50;;
76801;SDS011;66403;50.832;10.950;2023-04-24T18:06:04;3.63;;;1.92;;
76801;SDS011;66403;50.832;10.950;2023-04-24T18:11:04;1.85;;;1.63;;
76801;SDS011;66403;50.832;10.950;2023-04-24T18:16:05;5.72;;;2.28;;
76801;SDS011;66403;50.832;10.950;2023-04-24T18:21:06;2.80;;;1.35;;
76801;SDS011;66403;50.832;10.950;2023-04-24T18:26:06;2.85;;;1.90;;
76801;SDS011;66403;50.832;10.950;2023-04-24T18:31:07;3.85;;;1.52;;
76801;SDS011;66403;50.832;10.950;2023-04-24T18:36:08;1.85;;;1.75;;
76801;SDS011;66403;50.832;10.950;2023-04-24T18:41:09;3.85;;;2.13;;
76801;SDS011;66403;50.832;10.950;2023-04-24T18:46:09;2.15;;;1.40;;
76801;SDS011;66403;50.832;10.950;2023-04-24T18:51:10;2.88;;;1.95;;
76801;SDS011;66403;50.832;10.950;2023-04-24T18:56:10;3.72;;;1.70;;
76801;SDS011;66403;50.832;10.950;2023-04-24T19:01:12;2.72;;;1.63;;
76801;SDS011;66403;50.832;10.950;2023-04-24T19:07:02;3.33;;;1.70;;
76801;SDS011;66403;50.832;10.950;2023-04-24T19:12:03;3.85;;;1.73;;
76801;SDS011;66403;50.832;10.950;2023-04-24T19:17:09;1.60;;;1.17;;
76801;SDS011;66403;50.832;10.950;2023-04-24T19:22:10;3.60;;;1.90;;
76801;SDS011;66403;50.832;10.950;2023-04-24T19:27:11;6.63;;;3.72;;
76801;SDS011;66403;50.832;10.950;2023-04-24T19:32:11;3.47;;;1.63;;
76801;SDS011;66403;50.832;10.950;2023-04-24T19:37:12;2.85;;;1.33;;
76801;SDS011;66403;50.832;10.950;2023-04-24T19:42:13;4.32;;;1.38;;
76801;SDS011;66403;50.832;10.950;2023-04-24T19:47:13;2.05;;;1.65;;
76801;SDS011;66403;50.832;10.950;2023-04-24T19:52:13;3.50;;;1.65;;
76801;SDS011;66403;50.832;10.950;2023-04-24T19:57:14;2.65;;;1.77;;
76801;SDS011;66403;50.832;10.950;2023-04-24T20:02:14;4.75;;;3.47;;
76801;SDS011;66403;50.832;10.950;2023-04-24T20:07:15;3.20;;;2.00;;
76801;SDS011;66403;50.832;10.950;2023-04-24T20:12:15;2.42;;;2.22;;
76801;SDS011;66403;50.832;10.950;2023-04-24T20:17:16;7.70;;;4.28;;
76801;SDS011;66403;50.832;10.950;2023-04-24T20:22:17;3.45;;;2.30;;
76801;SDS011;66403;50.832;10.950;2023-04-24T20:27:17;4.28;;;2.15;;
76801;SDS011;66403;50.832;10.950;2023-04-24T20:32:17;3.42;;;2.22;;
76801;SDS011;66403;50.832;10.950;2023-04-24T20:37:18;2.72;;;2.15;;
76801;SDS011;66403;50.832;10.950;2023-04-24T20:42:21;3.28;;;2.72;;
76801;SDS011;66403;50.832;10.950;2023-04-24T20:47:22;4.32;;;3.10;;
76801;SDS011;66403;50.832;10.950;2023-04-24T20:52:22;3.00;;;2.47;;
76801;SDS011;66403;50.832;10.950;2023-04-24T20:57:23;7.13;;;2.50;;
76801;SDS011;66403;50.832;10.950;2023-04-24T21:02:23;4.05;;;2.65;;
76801;SDS011;66403;50.832;10.950;2023-04-24T21:07:24;3.80;;;2.53;;
76801;SDS011;66403;50.832;10.950;2023-04-24T21:12:24;4.20;;;2.65;;
76801;SDS011;66403;50.832;10.950;2023-04-24T21:17:25;4.78;;;2.90;;
76801;SDS011;66403;50.832;10.950;2023-04-24T21:22:25;6.05;;;2.97;;
76801;SDS011;66403;50.832;10.950;2023-04-24T21:27:26;4.15;;;2.45;;
76801;SDS011;66403;50.832;10.950;2023-04-24T21:32:26;3.88;;;2.20;;
76801;SDS011;66403;50.832;10.950;2023-04-24T21:37:27;3.28;;;1.98;;
76801;SDS011;66403;50.832;10.950;2023-04-24T21:42:28;3.33;;;2.53;;
76801;SDS011;66403;50.832;10.950;2023-04-24T21:47:28;3.45;;;2.53;;
76801;SDS011;66403;50.832;10.950;2023-04-24T21:52:28;2.83;;;2.25;;
76801;SDS011;66403;50.832;10.950;2023-04-24T21:57:29;2.97;;;2.67;;
76801;SDS011;66403;50.832;10.950;2023-04-24T22:02:29;4.47;;;2.58;;
76801;SDS011;66403;50.832;10.950;2023-04-24T22:07:31;6.47;;;2.58;;
76801;SDS011;66403;50.832;10.950;2023-04-24T22:12:33;4.72;;;2.47;;
76801;SDS011;66403;50.832;10.950;2023-04-24T22:17:33;3.92;;;2.80;;
76801;SDS011;66403;50.832;10.950;2023-04-24T22:22:35;2.80;;;1.95;;
76801;SDS011;66403;50.832;10.950;2023-04-24T22:27:35;4.15;;;2.92;;
76801;SDS011;66403;50.832;10.950;2023-04-24T22:32:35;3.95;;;3.00;;
76801;SDS011;66403;50.832;10.950;2023-04-24T22:37:36;3.60;;;2.28;;
76801;SDS011;66403;50.832;10.950;2023-04-24T22:42:36;4.07;;;2.50;;
76801;SDS011;66403;50.832;10.950;2023-04-24T22:47:38;3.88;;;2.47;;
76801;SDS011;66403;50.832;10.950;2023-04-24T22:52:38;4.53;;;2.28;;
76801;SDS011;66403;50.832;10.950;2023-04-24T22:57:40;4.90;;;2.63;;
76801;SDS011;66403;50.832;10.950;2023-04-24T23:02:41;4.45;;;2.67;;
76801;SDS011;66403;50.832;10.950;2023-04-24T23:07:41;5.13;;;2.65;;
76801;SDS011;66403;50.832;10.950;2023-04-24T23:12:42;3.08;;;2.70;;
76801;SDS011;66403;50.832;10.950;2023-04-24T23:17:42;3.70;;;2.97;;
76801;SDS011;66403;50.832;10.950;2023-04-24T23:22:43;3.15;;;2.65;;
76801;SDS011;66403;50.832;10.950;2023-04-24T23:27:43;4.00;;;2.85;;
76801;SDS011;66403;50.832;10.950;2023-04-24T23:32:44;4.72;;;2.33;;
76801;SDS011;66403;50.832;10.950;2023-04-24T23:37:44;4.45;;;2.88;;
76801;SDS011;66403;50.832;10.950;2023-04-24T23:42:45;4.95;;;2.58;;
76801;SDS011;66403;50.832;10.950;2023-04-24T23:47:45;4.32;;;2.78;;
76801;SDS011;66403;50.832;10.950;2023-04-24T23:52:46;6.65;;;3.13;;
76801;SDS011;66403;50.832;10.950;2023-04-24T23:57:46;5.32;;;2.63;;
